Terminal Aerodrome Forecast
Issued by NWS

Current Version | Previous Version | Text Only | Print | Product List | Glossary On
Versions: 1 2 3 4 5 6 7 8 9 10 11 12 13 14
000
FTUS43 KJKL 291137
TAFSJS
TAF
KSJS 291137Z 2912/3012 00000KT P6SM SCT070
     FM291400 20005KT P6SM SCT050 BKN250
     FM292300 VRB03KT P6SM BKN050=

USA.gov is the U.S. government's official web portal to all federal, state and local government web resources and services.